createdAt,value
2022-10-31T00:01:50.634Z,12.53
2022-10-31T00:04:17.378Z,14.23
2022-10-31T00:06:44.113Z,13.00
2022-10-31T00:09:11.431Z,9.50
2022-10-31T00:11:39.476Z,14.73
2022-10-31T00:14:06.510Z,13.60
2022-10-31T00:16:33.263Z,15.37
2022-10-31T00:19:03.038Z,14.73
2022-10-31T00:21:31.380Z,13.40
2022-10-31T00:23:58.461Z,13.70
2022-10-31T00:26:25.680Z,12.67
2022-10-31T00:28:53.836Z,16.43
2022-10-31T00:31:20.632Z,12.13
2022-10-31T00:33:47.489Z,13.30
2022-10-31T00:36:15.801Z,8.10
2022-10-31T00:38:43.010Z,7.20
2022-10-31T00:41:10.229Z,15.57
2022-10-31T00:43:37.008Z,11.30
2022-10-31T00:46:05.521Z,10.90
2022-10-31T00:48:32.309Z,12.10
2022-10-31T00:50:59.399Z,6.30
2022-10-31T00:53:26.317Z,11.03
2022-10-31T00:55:53.435Z,11.33
2022-10-31T00:58:20.277Z,7.63
2022-10-31T01:00:51.117Z,9.30
2022-10-31T01:03:20.014Z,10.47
2022-10-31T01:05:46.800Z,8.97
2022-10-31T01:08:13.593Z,8.10
2022-10-31T01:10:40.384Z,8.23
2022-10-31T01:13:07.169Z,18.00
2022-10-31T01:15:33.900Z,10.07
2022-10-31T01:18:00.993Z,9.47
2022-10-31T01:20:29.637Z,20.83
2022-10-31T01:22:56.407Z,9.93
2022-10-31T01:25:23.196Z,10.93
2022-10-31T01:27:49.904Z,11.03
2022-10-31T01:30:16.727Z,13.07
2022-10-31T01:32:43.472Z,10.37
2022-10-31T01:35:10.210Z,7.83
2022-10-31T01:37:38.433Z,12.73
2022-10-31T01:40:06.475Z,9.43
2022-10-31T01:42:33.232Z,9.93
2022-10-31T01:45:02.574Z,8.10
2022-10-31T01:47:37.234Z,10.40
2022-10-31T01:50:07.082Z,8.50
2022-10-31T01:52:41.411Z,13.03
2022-10-31T01:55:12.884Z,8.87
2022-10-31T01:57:43.330Z,14.90
2022-10-31T02:00:12.166Z,6.67
2022-10-31T02:02:39.430Z,12.67
2022-10-31T02:05:10.266Z,8.43
2022-10-31T02:07:43.562Z,11.90
2022-10-31T02:10:10.504Z,13.30
2022-10-31T02:12:37.568Z,10.07
2022-10-31T02:15:05.586Z,11.20
2022-10-31T02:17:33.667Z,13.30
2022-10-31T02:20:11.206Z,18.70
2022-10-31T02:22:48.877Z,16.07
2022-10-31T02:25:36.356Z,16.57
2022-10-31T02:28:19.821Z,7.90
2022-10-31T02:31:01.344Z,12.57
2022-10-31T02:33:36.115Z,8.97
2022-10-31T02:36:10.914Z,9.73
2022-10-31T02:38:47.959Z,7.40
2022-10-31T02:41:24.409Z,8.07
2022-10-31T02:43:59.273Z,12.83
2022-10-31T02:46:35.109Z,10.90
2022-10-31T02:49:08.515Z,9.33
2022-10-31T02:51:36.248Z,8.90
2022-10-31T02:54:03.060Z,13.00
2022-10-31T02:56:29.874Z,14.87
2022-10-31T02:59:00.492Z,18.93
2022-10-31T03:01:57.924Z,10.57
2022-10-31T03:04:45.107Z,14.37
2022-10-31T03:07:21.498Z,8.80
2022-10-31T03:09:55.827Z,6.50
2022-10-31T03:12:29.555Z,9.10
2022-10-31T03:15:04.797Z,10.70
2022-10-31T03:17:37.849Z,10.87
2022-10-31T03:20:08.333Z,7.00
2022-10-31T03:22:36.841Z,6.97
2022-10-31T03:25:06.689Z,6.10
2022-10-31T03:27:35.786Z,8.17
2022-10-31T03:30:07.083Z,6.60
2022-10-31T03:32:39.806Z,5.90
2022-10-31T03:35:09.347Z,8.07
2022-10-31T03:37:38.039Z,8.80
2022-10-31T03:40:07.776Z,8.90
2022-10-31T03:42:38.346Z,7.60
2022-10-31T03:45:10.441Z,17.30
2022-10-31T03:47:39.709Z,9.27
2022-10-31T03:50:08.435Z,11.53
2022-10-31T03:52:38.355Z,12.30
2022-10-31T03:55:10.113Z,7.17
2022-10-31T03:57:44.285Z,7.73
2022-10-31T04:00:14.162Z,8.67
2022-10-31T04:02:46.489Z,8.90
2022-10-31T04:05:16.261Z,7.97
2022-10-31T04:07:48.157Z,6.70
2022-10-31T04:10:17.661Z,10.90
2022-10-31T04:12:49.157Z,13.27
2022-10-31T04:15:17.210Z,6.83
2022-10-31T04:17:48.353Z,10.60
2022-10-31T04:20:16.737Z,7.10
2022-10-31T04:22:43.568Z,9.87
2022-10-31T04:25:10.291Z,13.40
2022-10-31T04:27:37.087Z,7.37
2022-10-31T04:30:04.420Z,7.17
2022-10-31T04:32:31.140Z,5.40
2022-10-31T04:34:59.213Z,7.43
2022-10-31T04:37:25.979Z,9.27
2022-10-31T04:39:52.689Z,10.50
2022-10-31T04:42:19.431Z,10.13
2022-10-31T04:44:46.172Z,8.40
2022-10-31T04:47:12.985Z,11.50
2022-10-31T04:49:39.717Z,9.37
2022-10-31T04:52:07.811Z,15.63
2022-10-31T04:54:34.545Z,15.17
2022-10-31T04:57:01.316Z,13.13
2022-10-31T04:59:28.032Z,9.50
2022-10-31T05:01:54.986Z,9.10
2022-10-31T05:04:21.990Z,15.83
2022-10-31T05:06:48.774Z,9.53
2022-10-31T05:09:16.846Z,13.53
2022-10-31T05:11:43.589Z,14.33
2022-10-31T05:14:10.344Z,12.47
2022-10-31T05:16:37.088Z,13.80
2022-10-31T05:19:04.348Z,19.97
2022-10-31T05:21:31.114Z,16.67
2022-10-31T05:23:57.906Z,30.90
2022-10-31T05:26:26.036Z,17.80
2022-10-31T05:28:52.791Z,18.60
2022-10-31T05:31:19.580Z,27.40
2022-10-31T05:33:46.323Z,19.03
2022-10-31T05:36:13.202Z,20.67
2022-10-31T05:38:39.937Z,23.03
2022-10-31T05:41:06.721Z,20.57
2022-10-31T05:43:34.808Z,25.87
2022-10-31T05:46:01.581Z,18.87
2022-10-31T05:48:28.315Z,18.10
2022-10-31T05:50:55.134Z,11.57
2022-10-31T05:53:21.853Z,17.23
2022-10-31T05:55:48.621Z,14.33
2022-10-31T05:58:15.431Z,25.60
2022-10-31T06:00:43.580Z,23.57
2022-10-31T06:03:10.865Z,14.77
2022-10-31T06:05:37.671Z,12.10
2022-10-31T06:08:05.002Z,15.90
2022-10-31T06:10:32.046Z,19.07
2022-10-31T06:12:58.952Z,17.60
2022-10-31T06:15:25.930Z,15.00
2022-10-31T06:18:02.327Z,19.90
2022-10-31T06:20:29.496Z,30.93
2022-10-31T06:22:56.274Z,33.43
2022-10-31T06:25:23.018Z,46.83
2022-10-31T06:27:49.843Z,41.73
2022-10-31T06:30:16.738Z,41.40
2022-10-31T06:32:43.750Z,34.17
2022-10-31T06:35:11.918Z,41.07
2022-10-31T06:37:38.768Z,39.23
2022-10-31T06:40:06.443Z,39.57
2022-10-31T06:42:33.206Z,41.60
2022-10-31T06:44:59.913Z,38.77
2022-10-31T06:47:26.733Z,42.03
2022-10-31T06:49:53.526Z,47.37
2022-10-31T06:52:21.857Z,51.67
2022-10-31T06:54:48.717Z,52.77
2022-10-31T06:57:15.507Z,63.03
2022-10-31T06:59:42.392Z,50.27
2022-10-31T07:02:10.368Z,61.20
2022-10-31T07:04:37.404Z,59.57
2022-10-31T07:09:08.163Z,50.97
2022-10-31T07:10:22.059Z,57.67
2022-10-31T07:13:15.007Z,52.03
2022-10-31T07:15:43.085Z,75.70
2022-10-31T07:18:12.312Z,72.07
2022-10-31T07:20:39.441Z,71.67
2022-10-31T07:23:08.547Z,70.00
2022-10-31T07:25:35.275Z,77.97
2022-10-31T07:28:02.488Z,79.63
2022-10-31T07:30:29.518Z,83.80
2022-10-31T07:32:56.364Z,85.03
2022-10-31T07:35:24.879Z,92.63
2022-10-31T07:37:52.066Z,66.70
2022-10-31T07:40:20.622Z,76.67
2022-10-31T07:42:48.656Z,91.47
2022-10-31T07:45:17.689Z,72.77
2022-10-31T07:47:45.481Z,80.40
2022-10-31T07:50:14.532Z,84.87
2022-10-31T07:52:41.413Z,78.53
2022-10-31T07:55:09.126Z,67.20
2022-10-31T07:57:37.334Z,80.00
2022-10-31T08:00:04.697Z,81.73
2022-10-31T08:02:31.642Z,73.90
2022-10-31T08:05:01.160Z,81.43
2022-10-31T08:07:29.129Z,73.00
2022-10-31T08:09:56.136Z,62.20
2022-10-31T08:12:22.912Z,69.97
2022-10-31T08:14:51.095Z,68.40
2022-10-31T08:17:17.846Z,71.00
2022-10-31T08:19:44.549Z,80.33
2022-10-31T08:22:11.369Z,77.20
2022-10-31T08:27:09.792Z,79.53
2022-10-31T08:29:36.557Z,67.37
2022-10-31T08:32:05.287Z,74.70
2022-10-31T08:34:32.052Z,80.13
2022-10-31T08:36:58.737Z,79.00
2022-10-31T08:39:25.529Z,75.57
2022-10-31T08:41:52.252Z,72.63
2022-10-31T08:44:18.989Z,86.23
2022-10-31T08:46:45.771Z,83.17
2022-10-31T08:49:13.930Z,80.63
2022-10-31T08:51:40.615Z,73.93
2022-10-31T08:54:07.431Z,79.93
2022-10-31T08:56:34.160Z,61.50
2022-10-31T08:59:00.982Z,64.30
2022-10-31T09:01:27.878Z,61.33
2022-10-31T09:03:54.613Z,65.80
2022-10-31T09:06:22.809Z,77.47
2022-10-31T09:08:49.598Z,59.07
2022-10-31T09:11:16.284Z,65.83
2022-10-31T09:13:42.983Z,66.70
2022-10-31T09:16:09.686Z,63.87
2022-10-31T09:18:36.435Z,69.03
2022-10-31T09:21:03.349Z,73.70
2022-10-31T09:23:31.604Z,74.90
2022-10-31T09:26:00.772Z,72.00
2022-10-31T09:28:27.667Z,83.63
2022-10-31T09:30:55.021Z,77.33
2022-10-31T09:33:22.309Z,76.33
2022-10-31T09:35:49.759Z,71.33
2022-10-31T09:38:17.988Z,74.77
2022-10-31T09:40:47.996Z,61.03
2022-10-31T09:43:22.859Z,60.30
2022-10-31T09:45:59.702Z,71.97
2022-10-31T09:48:38.534Z,72.03
2022-10-31T09:51:09.609Z,70.60
2022-10-31T09:53:41.800Z,61.10
2022-10-31T09:56:13.128Z,70.20
2022-10-31T09:58:43.677Z,71.00
2022-10-31T10:01:28.490Z,68.47
2022-10-31T10:04:01.835Z,69.53
2022-10-31T10:06:33.336Z,70.47
2022-10-31T10:09:01.197Z,67.07
2022-10-31T10:11:45.238Z,62.77
2022-10-31T10:14:28.189Z,68.60
2022-10-31T10:17:11.604Z,62.73
2022-10-31T10:20:08.893Z,63.23
2022-10-31T10:22:43.971Z,61.37
2022-10-31T10:25:16.968Z,63.03
2022-10-31T10:27:56.169Z,71.57
2022-10-31T10:30:25.298Z,61.80
2022-10-31T10:32:55.784Z,74.67
2022-10-31T10:35:27.677Z,62.70
2022-10-31T10:37:59.583Z,67.93
2022-10-31T10:40:28.728Z,63.00
2022-10-31T10:43:09.112Z,63.93
2022-10-31T10:45:35.864Z,71.90
2022-10-31T10:48:12.058Z,64.80
2022-10-31T10:50:45.213Z,71.97
2022-10-31T10:53:26.547Z,57.57
2022-10-31T10:56:00.018Z,68.10
2022-10-31T10:58:28.270Z,63.10
2022-10-31T11:00:56.595Z,50.60
2022-10-31T11:03:23.430Z,51.53
2022-10-31T11:05:53.112Z,55.93
2022-10-31T11:08:27.562Z,71.90
2022-10-31T11:10:59.853Z,71.77
2022-10-31T11:13:28.409Z,60.70
2022-10-31T11:15:59.279Z,65.03
2022-10-31T11:18:28.106Z,62.53
2022-10-31T11:20:57.196Z,63.70
2022-10-31T11:23:25.738Z,60.37
2022-10-31T11:25:56.736Z,69.27
2022-10-31T11:28:23.904Z,66.87
2022-10-31T11:30:54.435Z,51.20
2022-10-31T11:33:27.564Z,49.57
2022-10-31T11:35:57.898Z,64.80
2022-10-31T11:38:41.388Z,48.37
2022-10-31T11:41:13.296Z,46.30
2022-10-31T11:43:46.364Z,66.97
2022-10-31T11:46:20.890Z,55.70
2022-10-31T11:48:49.415Z,56.90
2022-10-31T11:51:22.017Z,54.47
2022-10-31T11:53:56.700Z,55.20
2022-10-31T11:56:27.252Z,51.87
2022-10-31T11:58:58.007Z,50.17
2022-10-31T12:01:28.097Z,46.40
2022-10-31T12:04:05.071Z,53.87
2022-10-31T12:06:35.342Z,46.27
2022-10-31T12:09:02.070Z,53.17
2022-10-31T12:11:43.468Z,50.20
2022-10-31T12:14:25.610Z,44.83
2022-10-31T12:16:58.936Z,37.53
2022-10-31T12:19:36.272Z,48.30
2022-10-31T12:22:09.401Z,50.03
2022-10-31T12:25:10.879Z,48.77
2022-10-31T12:27:53.202Z,59.10
2022-10-31T12:30:22.238Z,46.20
2022-10-31T12:33:15.556Z,37.60
2022-10-31T12:35:48.370Z,44.30
2022-10-31T12:38:40.296Z,49.17
2022-10-31T12:41:24.133Z,39.57
2022-10-31T12:43:58.032Z,57.90
2022-10-31T12:46:33.532Z,62.70
2022-10-31T12:49:15.995Z,49.90
2022-10-31T12:51:55.684Z,56.03
2022-10-31T12:54:37.701Z,51.13
2022-10-31T12:57:14.092Z,48.57
2022-10-31T12:59:44.481Z,53.10
2022-10-31T13:02:19.488Z,48.10
2022-10-31T13:04:51.327Z,57.80
2022-10-31T13:07:23.202Z,57.97
2022-10-31T13:09:55.396Z,54.23
2022-10-31T13:12:23.629Z,51.17
2022-10-31T13:14:53.124Z,48.33
2022-10-31T13:17:25.360Z,40.10
2022-10-31T13:20:03.639Z,46.30
2022-10-31T13:22:33.441Z,45.03
2022-10-31T13:25:10.625Z,47.80
2022-10-31T13:27:46.100Z,46.07
2022-10-31T13:30:16.705Z,43.17
2022-10-31T13:32:48.530Z,57.73
2022-10-31T13:35:22.830Z,47.87
2022-10-31T13:37:58.645Z,47.47
2022-10-31T13:40:36.424Z,49.60
2022-10-31T13:43:11.006Z,57.70
2022-10-31T13:45:49.780Z,55.47
2022-10-31T13:48:35.882Z,55.57
2022-10-31T13:51:06.557Z,60.00
2022-10-31T13:53:42.512Z,58.53
2022-10-31T13:56:19.562Z,53.23
2022-10-31T13:59:05.989Z,46.87
2022-10-31T14:01:34.158Z,57.83
2022-10-31T14:04:13.022Z,54.87
2022-10-31T14:06:52.990Z,61.33
2022-10-31T14:09:38.647Z,60.37
2022-10-31T14:12:08.885Z,45.63
2022-10-31T14:14:44.539Z,44.23
2022-10-31T14:17:20.102Z,46.23
2022-10-31T14:20:01.957Z,62.53
2022-10-31T14:22:42.934Z,62.03
2022-10-31T14:25:31.599Z,46.83
2022-10-31T14:28:00.010Z,37.47
2022-10-31T14:30:28.659Z,49.60
2022-10-31T14:32:58.574Z,59.23
2022-10-31T14:35:33.183Z,46.67
2022-10-31T14:38:35.302Z,52.30
2022-10-31T14:41:18.260Z,43.27
2022-10-31T14:44:03.265Z,48.50
2022-10-31T14:46:42.840Z,44.00
2022-10-31T14:49:23.408Z,47.03
2022-10-31T14:51:52.384Z,47.83
2022-10-31T14:54:24.192Z,45.17
2022-10-31T14:56:56.161Z,39.63
2022-10-31T14:59:29.066Z,51.77
2022-10-31T15:01:59.832Z,44.67
2022-10-31T15:04:29.326Z,45.47
2022-10-31T15:07:01.515Z,35.93
2022-10-31T15:09:30.033Z,41.13
2022-10-31T15:11:59.297Z,47.00
2022-10-31T15:14:28.896Z,39.63
2022-10-31T15:16:58.243Z,33.10
2022-10-31T15:19:26.993Z,47.40
2022-10-31T15:21:55.945Z,34.60
2022-10-31T15:24:25.422Z,31.50
2022-10-31T15:26:54.491Z,34.80
2022-10-31T15:29:25.812Z,39.93
2022-10-31T15:31:53.861Z,36.13
2022-10-31T15:34:27.209Z,40.67
2022-10-31T15:36:54.016Z,32.90
2022-10-31T15:39:21.029Z,38.47
2022-10-31T15:41:54.522Z,42.90
2022-10-31T15:44:26.485Z,41.13
2022-10-31T15:46:58.837Z,41.03
2022-10-31T15:49:36.818Z,37.30
2022-10-31T15:52:07.631Z,44.73
2022-10-31T15:54:34.804Z,46.80
2022-10-31T15:57:01.629Z,53.17
2022-10-31T15:59:30.183Z,45.73
2022-10-31T16:02:02.703Z,52.10
2022-10-31T16:04:30.248Z,53.80
2022-10-31T16:07:02.610Z,46.20
2022-10-31T16:09:30.054Z,38.17
2022-10-31T16:11:58.219Z,38.73
2022-10-31T16:14:28.057Z,48.33
2022-10-31T16:16:59.390Z,40.93
2022-10-31T16:19:30.753Z,49.53
2022-10-31T16:22:05.142Z,41.27
2022-10-31T16:24:34.264Z,44.47
2022-10-31T16:27:05.017Z,40.40
2022-10-31T16:29:36.271Z,54.60
2022-10-31T16:32:04.921Z,41.07
2022-10-31T16:34:31.683Z,34.90
2022-10-31T16:36:58.392Z,44.60
2022-10-31T16:39:25.154Z,54.23
2022-10-31T16:41:55.600Z,46.77
2022-10-31T16:44:24.221Z,37.83
2022-10-31T16:47:10.525Z,50.27
2022-10-31T16:49:37.380Z,31.57
2022-10-31T16:52:04.431Z,42.10
2022-10-31T16:54:31.289Z,41.60
2022-10-31T16:56:59.388Z,48.73
2022-10-31T16:59:27.266Z,45.37
2022-10-31T17:01:55.178Z,38.57
2022-10-31T17:04:23.598Z,45.03
2022-10-31T17:06:50.395Z,44.90
2022-10-31T17:09:17.262Z,46.70
2022-10-31T17:11:49.446Z,42.03
2022-10-31T17:14:17.026Z,38.90
2022-10-31T17:16:43.946Z,42.80
2022-10-31T17:19:11.631Z,49.77
2022-10-31T17:21:40.451Z,52.00
2022-10-31T17:24:10.279Z,50.63
2022-10-31T17:26:37.034Z,36.53
2022-10-31T17:29:03.964Z,44.13
2022-10-31T17:31:32.801Z,34.53
2022-10-31T17:34:02.480Z,41.83
2022-10-31T17:36:30.636Z,43.53
2022-10-31T17:38:58.859Z,52.17
2022-10-31T17:41:25.669Z,44.50
2022-10-31T17:43:55.303Z,51.63
2022-10-31T17:46:22.024Z,45.63
2022-10-31T17:48:48.854Z,38.27
2022-10-31T17:51:15.732Z,34.87
2022-10-31T17:53:42.572Z,49.73
2022-10-31T17:56:10.868Z,36.00
2022-10-31T17:58:38.215Z,37.23
2022-10-31T18:01:08.364Z,40.57
2022-10-31T18:03:35.280Z,34.53
2022-10-31T18:06:02.066Z,37.00
2022-10-31T18:08:31.970Z,34.73
2022-10-31T18:10:59.349Z,39.50
2022-10-31T18:13:28.017Z,41.60
2022-10-31T18:15:54.919Z,39.93
2022-10-31T18:18:21.892Z,29.80
2022-10-31T18:20:48.806Z,41.70
2022-10-31T18:23:15.527Z,35.00
2022-10-31T18:25:42.403Z,34.07
2022-10-31T18:28:09.686Z,42.37
2022-10-31T18:30:40.954Z,34.30
2022-10-31T18:33:08.137Z,34.83
2022-10-31T18:35:36.306Z,53.90
2022-10-31T18:38:03.421Z,43.77
2022-10-31T18:40:30.278Z,38.57
2022-10-31T18:42:56.995Z,34.03
2022-10-31T18:45:33.911Z,49.27
2022-10-31T18:48:12.944Z,49.00
2022-10-31T18:50:40.143Z,50.63
2022-10-31T18:53:06.865Z,41.07
2022-10-31T18:55:33.607Z,46.10
2022-10-31T18:58:00.315Z,39.87
2022-10-31T19:00:27.040Z,37.03
2022-10-31T19:02:56.458Z,33.90
2022-10-31T19:05:24.768Z,43.87
2022-10-31T19:07:51.515Z,31.03
2022-10-31T19:10:18.232Z,38.33
2022-10-31T19:12:44.987Z,36.47
2022-10-31T19:15:11.718Z,34.50
2022-10-31T19:17:38.425Z,70.53
2022-10-31T19:20:06.194Z,40.47
2022-10-31T19:22:34.236Z,36.03
2022-10-31T19:25:03.016Z,41.00
2022-10-31T19:27:32.829Z,46.80
2022-10-31T19:29:59.565Z,44.13
2022-10-31T19:32:26.417Z,32.77
2022-10-31T19:34:53.129Z,46.20
2022-10-31T19:37:19.831Z,50.67
2022-10-31T19:39:47.919Z,34.47
2022-10-31T19:42:14.594Z,36.60
2022-10-31T19:44:41.270Z,60.30
2022-10-31T19:47:08.039Z,33.03
2022-10-31T19:49:34.777Z,40.70
2022-10-31T19:52:01.506Z,46.40
2022-10-31T19:54:28.281Z,34.07
2022-10-31T19:56:56.338Z,55.43
2022-10-31T19:59:23.072Z,36.77
2022-10-31T20:01:49.825Z,43.60
2022-10-31T20:04:16.581Z,31.73
2022-10-31T20:06:43.590Z,42.67
2022-10-31T20:09:12.074Z,39.80
2022-10-31T20:11:39.287Z,37.50
2022-10-31T20:14:08.837Z,41.07
2022-10-31T20:16:35.602Z,32.30
2022-10-31T20:19:02.583Z,34.87
2022-10-31T20:21:30.937Z,44.53
2022-10-31T20:23:58.916Z,25.30
2022-10-31T20:26:26.458Z,28.53
2022-10-31T20:28:55.533Z,46.27
2022-10-31T20:31:25.595Z,43.20
2022-10-31T20:33:52.968Z,39.50
2022-10-31T20:36:19.871Z,29.30
2022-10-31T20:38:47.281Z,29.33
2022-10-31T20:41:14.244Z,27.03
2022-10-31T20:43:41.631Z,33.60
2022-10-31T20:46:10.954Z,28.80
2022-10-31T20:48:39.104Z,41.83
2022-10-31T20:51:08.098Z,30.80
2022-10-31T20:53:35.016Z,34.83
2022-10-31T20:56:06.855Z,31.90
2022-10-31T20:58:34.636Z,29.17
2022-10-31T21:01:01.834Z,39.40
2022-10-31T21:03:28.635Z,26.60
2022-10-31T21:05:59.008Z,48.10
2022-10-31T21:08:27.270Z,33.63
2022-10-31T21:10:54.682Z,33.77
2022-10-31T21:13:21.839Z,35.40
2022-10-31T21:15:48.725Z,29.60
2022-10-31T21:18:15.494Z,34.57
2022-10-31T21:20:43.514Z,27.67
2022-10-31T21:23:11.886Z,29.53
2022-10-31T21:25:39.796Z,25.83
2022-10-31T21:28:06.768Z,26.57
2022-10-31T21:30:33.689Z,31.43
2022-10-31T21:33:00.439Z,31.93
2022-10-31T21:35:27.257Z,25.63
2022-10-31T21:37:53.948Z,27.73
2022-10-31T21:40:22.033Z,23.33
2022-10-31T21:42:48.781Z,31.30
2022-10-31T21:45:15.585Z,33.20
2022-10-31T21:47:42.311Z,26.27
2022-10-31T21:50:09.631Z,29.60
2022-10-31T21:52:36.356Z,30.13
2022-10-31T21:55:03.212Z,21.07
2022-10-31T21:57:31.871Z,30.53
2022-10-31T21:59:58.846Z,28.83
2022-10-31T22:02:25.610Z,29.33
2022-10-31T22:04:52.381Z,26.40
2022-10-31T22:07:19.086Z,35.10
2022-10-31T22:09:45.870Z,28.50
2022-10-31T22:12:12.894Z,35.97
2022-10-31T22:17:08.389Z,23.80
2022-10-31T22:19:35.404Z,29.57
2022-10-31T22:22:02.928Z,22.57
2022-10-31T22:24:29.773Z,25.90
2022-10-31T22:26:56.464Z,29.77
2022-10-31T22:29:23.260Z,30.07
2022-10-31T22:31:55.151Z,27.53
2022-10-31T22:34:25.508Z,28.03
2022-10-31T22:36:54.653Z,22.33
2022-10-31T22:39:21.407Z,32.27
2022-10-31T22:41:48.087Z,24.60
2022-10-31T22:44:14.833Z,32.80
2022-10-31T22:46:41.718Z,21.17
2022-10-31T22:49:13.540Z,29.00
2022-10-31T22:51:41.136Z,29.47
2022-10-31T22:54:11.215Z,22.67
2022-10-31T22:56:37.989Z,26.93
2022-10-31T22:59:04.777Z,38.00
2022-10-31T23:01:33.473Z,31.90
2022-10-31T23:04:00.746Z,30.40
2022-10-31T23:06:30.637Z,29.17
2022-10-31T23:08:57.520Z,27.47
2022-10-31T23:11:25.998Z,38.30
2022-10-31T23:13:54.980Z,33.50
2022-10-31T23:16:21.758Z,25.53
2022-10-31T23:18:50.408Z,21.23
2022-10-31T23:21:17.736Z,22.67
2022-10-31T23:23:45.862Z,32.20
2022-10-31T23:26:12.595Z,19.30
2022-10-31T23:28:39.338Z,32.97
2022-10-31T23:31:06.071Z,26.53
2022-10-31T23:33:32.784Z,24.00
2022-10-31T23:35:59.630Z,33.40
2022-10-31T23:38:26.485Z,27.57
2022-10-31T23:40:54.592Z,25.10
2022-10-31T23:43:21.345Z,25.17
2022-10-31T23:45:48.059Z,33.13
2022-10-31T23:48:14.773Z,28.53
2022-10-31T23:50:41.523Z,31.97
2022-10-31T23:53:08.317Z,32.63
2022-10-31T23:55:36.880Z,25.73
2022-10-31T23:58:05.282Z,28.37
